<?xml version="1.0" encoding="UTF-8" standalone="no" ?>
<gpx xmlns="http://www.topografix.com/GPX/1/1" xmlns:xsi="http://www.w3.org/2001/XMLSchema-instance" xsi:schemaLocation="http://www.topografix.com/GPX/1/1 http://www.topografix.com/GPX/1/1/gpx.xsd" version="1.1" creator="VisuGPX - https://www.visugpx.com">
  <metadata>
    <name>Vacances 2021</name>
  </metadata>
  <trk>
    <name><![CDATA[Journal actif: 2021-07-22 15:27]]></name>
    <trkseg>
      <trkpt lat="49.314" lon="6.14468">
        <ele>154.43</ele>
        <time>2021-07-22T17:27:16Z</time>
      </trkpt>
      <trkpt lat="49.31238" lon="6.14623">
        <ele>152.99</ele>
        <time>2021-07-22T17:27:31Z</time>
      </trkpt>
      <trkpt lat="49.31055" lon="6.14775">
        <ele>152.51</ele>
        <time>2021-07-22T17:27:48Z</time>
      </trkpt>
      <trkpt lat="49.30985" lon="6.14836">
        <ele>152.99</ele>
        <time>2021-07-22T17:27:56Z</time>
      </trkpt>
      <trkpt lat="49.3098" lon="6.14838">
        <ele>152.99</ele>
        <time>2021-07-22T17:27:57Z</time>
      </trkpt>
      <trkpt lat="49.30976" lon="6.1484">
        <ele>153.47</ele>
        <time>2021-07-22T17:27:58Z</time>
      </trkpt>
      <trkpt lat="49.3096" lon="6.14833">
        <ele>154.91</ele>
        <time>2021-07-22T17:28:04Z</time>
      </trkpt>
      <trkpt lat="49.30958" lon="6.14827">
        <ele>154.91</ele>
        <time>2021-07-22T17:28:05Z</time>
      </trkpt>
      <trkpt lat="49.30953" lon="6.14827">
        <ele>154.43</ele>
        <time>2021-07-22T17:28:06Z</time>
      </trkpt>
      <trkpt lat="49.30948" lon="6.14827">
        <ele>153.95</ele>
        <time>2021-07-22T17:28:07Z</time>
      </trkpt>
      <trkpt lat="49.30944" lon="6.14833">
        <ele>153.47</ele>
        <time>2021-07-22T17:28:08Z</time>
      </trkpt>
      <trkpt lat="49.30943" lon="6.14841">
        <ele>153.47</ele>
        <time>2021-07-22T17:28:09Z</time>
      </trkpt>
      <trkpt lat="49.30943" lon="6.14849">
        <ele>153.95</ele>
        <time>2021-07-22T17:28:10Z</time>
      </trkpt>
      <trkpt lat="49.30943" lon="6.14852">
        <ele>153.47</ele>
        <time>2021-07-22T17:28:11Z</time>
      </trkpt>
      <trkpt lat="49.30943" lon="6.14852">
        <ele>153.47</ele>
        <time>2021-07-22T17:28:12Z</time>
      </trkpt>
      <trkpt lat="49.30941" lon="6.14872">
        <ele>153.47</ele>
        <time>2021-07-22T17:28:13Z</time>
      </trkpt>
      <trkpt lat="49.30937" lon="6.14879">
        <ele>153.47</ele>
        <time>2021-07-22T17:28:14Z</time>
      </trkpt>
      <trkpt lat="49.30933" lon="6.14887">
        <ele>153.95</ele>
        <time>2021-07-22T17:28:15Z</time>
      </trkpt>
      <trkpt lat="49.30928" lon="6.14896">
        <ele>153.95</ele>
        <time>2021-07-22T17:28:16Z</time>
      </trkpt>
      <trkpt lat="49.30854" lon="6.14995">
        <ele>151.54</ele>
        <time>2021-07-22T17:28:26Z</time>
      </trkpt>
      <trkpt lat="49.308" lon="6.15058">
        <ele>151.54</ele>
        <time>2021-07-22T17:28:34Z</time>
      </trkpt>
      <trkpt lat="49.30725" lon="6.15141">
        <ele>152.51</ele>
        <time>2021-07-22T17:28:46Z</time>
      </trkpt>
      <trkpt lat="49.30663" lon="6.15207">
        <ele>152.99</ele>
        <time>2021-07-22T17:28:56Z</time>
      </trkpt>
      <trkpt lat="49.30629" lon="6.15245">
        <ele>152.99</ele>
        <time>2021-07-22T17:29:07Z</time>
      </trkpt>
      <trkpt lat="49.30566" lon="6.15312">
        <ele>152.51</ele>
        <time>2021-07-22T17:29:18Z</time>
      </trkpt>
      <trkpt lat="49.30525" lon="6.15355">
        <ele>152.51</ele>
        <time>2021-07-22T17:29:24Z</time>
      </trkpt>
      <trkpt lat="49.30518" lon="6.1536">
        <ele>152.51</ele>
        <time>2021-07-22T17:29:25Z</time>
      </trkpt>
      <trkpt lat="49.3051" lon="6.15364">
        <ele>152.99</ele>
        <time>2021-07-22T17:29:26Z</time>
      </trkpt>
      <trkpt lat="49.30413" lon="6.1541">
        <ele>156.35</ele>
        <time>2021-07-22T17:29:38Z</time>
      </trkpt>
      <trkpt lat="49.30407" lon="6.15412">
        <ele>156.35</ele>
        <time>2021-07-22T17:29:39Z</time>
      </trkpt>
      <trkpt lat="49.30392" lon="6.15401">
        <ele>156.83</ele>
        <time>2021-07-22T17:29:42Z</time>
      </trkpt>
      <trkpt lat="49.30385" lon="6.15401">
        <ele>156.35</ele>
        <time>2021-07-22T17:29:43Z</time>
      </trkpt>
      <trkpt lat="49.30381" lon="6.15404">
        <ele>156.35</ele>
        <time>2021-07-22T17:29:44Z</time>
      </trkpt>
      <trkpt lat="49.30375" lon="6.15417">
        <ele>156.35</ele>
        <time>2021-07-22T17:29:45Z</time>
      </trkpt>
      <trkpt lat="49.30375" lon="6.15417">
        <ele>156.35</ele>
        <time>2021-07-22T17:29:46Z</time>
      </trkpt>
      <trkpt lat="49.30376" lon="6.15422">
        <ele>156.35</ele>
        <time>2021-07-22T17:29:47Z</time>
      </trkpt>
      <trkpt lat="49.30378" lon="6.15428">
        <ele>156.83</ele>
        <time>2021-07-22T17:29:48Z</time>
      </trkpt>
      <trkpt lat="49.3038" lon="6.15433">
        <ele>156.83</ele>
        <time>2021-07-22T17:29:49Z</time>
      </trkpt>
      <trkpt lat="49.30382" lon="6.15438">
        <ele>157.31</ele>
        <time>2021-07-22T17:29:50Z</time>
      </trkpt>
      <trkpt lat="49.30384" lon="6.15442">
        <ele>157.79</ele>
        <time>2021-07-22T17:29:51Z</time>
      </trkpt>
      <trkpt lat="49.30386" lon="6.1544">
        <ele>157.79</ele>
        <time>2021-07-22T17:29:52Z</time>
      </trkpt>
      <trkpt lat="49.30391" lon="6.15438">
        <ele>157.79</ele>
        <time>2021-07-22T17:29:53Z</time>
      </trkpt>
      <trkpt lat="49.30391" lon="6.15438">
        <ele>157.79</ele>
        <time>2021-07-22T17:29:54Z</time>
      </trkpt>
      <trkpt lat="49.30394" lon="6.15437">
        <ele>157.79</ele>
        <time>2021-07-22T17:29:55Z</time>
      </trkpt>
      <trkpt lat="49.30398" lon="6.15436">
        <ele>157.79</ele>
        <time>2021-07-22T17:29:56Z</time>
      </trkpt>
      <trkpt lat="49.30399" lon="6.15431">
        <ele>157.79</ele>
        <time>2021-07-22T17:29:57Z</time>
      </trkpt>
      <trkpt lat="49.30401" lon="6.15423">
        <ele>157.79</ele>
        <time>2021-07-22T17:29:58Z</time>
      </trkpt>
      <trkpt lat="49.30402" lon="6.15414">
        <ele>157.79</ele>
        <time>2021-07-22T17:29:59Z</time>
      </trkpt>
      <trkpt lat="49.30399" lon="6.15407">
        <ele>157.79</ele>
        <time>2021-07-22T17:30:00Z</time>
      </trkpt>
      <trkpt lat="49.30394" lon="6.15402">
        <ele>157.79</ele>
        <time>2021-07-22T17:30:01Z</time>
      </trkpt>
      <trkpt lat="49.30389" lon="6.154">
        <ele>157.79</ele>
        <time>2021-07-22T17:30:02Z</time>
      </trkpt>
      <trkpt lat="49.30379" lon="6.15409">
        <ele>157.79</ele>
        <time>2021-07-22T17:30:03Z</time>
      </trkpt>
      <trkpt lat="49.30379" lon="6.15409">
        <ele>157.79</ele>
        <time>2021-07-22T17:30:04Z</time>
      </trkpt>
      <trkpt lat="49.30376" lon="6.15416">
        <ele>157.79</ele>
        <time>2021-07-22T17:30:05Z</time>
      </trkpt>
      <trkpt lat="49.30379" lon="6.1543">
        <ele>157.79</ele>
        <time>2021-07-22T17:30:06Z</time>
      </trkpt>
      <trkpt lat="49.30379" lon="6.1543">
        <ele>157.79</ele>
        <time>2021-07-22T17:30:07Z</time>
      </trkpt>
      <trkpt lat="49.30385" lon="6.15446">
        <ele>158.75</ele>
        <time>2021-07-22T17:30:08Z</time>
      </trkpt>
      <trkpt lat="49.30385" lon="6.15446">
        <ele>159.24</ele>
        <time>2021-07-22T17:30:09Z</time>
      </trkpt>
      <trkpt lat="49.3039" lon="6.15463">
        <ele>159.24</ele>
        <time>2021-07-22T17:30:10Z</time>
      </trkpt>
      <trkpt lat="49.3039" lon="6.15463">
        <ele>159.72</ele>
        <time>2021-07-22T17:30:11Z</time>
      </trkpt>
      <trkpt lat="49.30393" lon="6.15472">
        <ele>159.72</ele>
        <time>2021-07-22T17:30:12Z</time>
      </trkpt>
      <trkpt lat="49.30394" lon="6.15482">
        <ele>159.72</ele>
        <time>2021-07-22T17:30:13Z</time>
      </trkpt>
      <trkpt lat="49.30394" lon="6.15493">
        <ele>160.2</ele>
        <time>2021-07-22T17:30:14Z</time>
      </trkpt>
      <trkpt lat="49.30385" lon="6.15646">
        <ele>162.12</ele>
        <time>2021-07-22T17:30:27Z</time>
      </trkpt>
      <trkpt lat="49.30384" lon="6.15658">
        <ele>161.64</ele>
        <time>2021-07-22T17:30:28Z</time>
      </trkpt>
      <trkpt lat="49.30381" lon="6.15671">
        <ele>161.16</ele>
        <time>2021-07-22T17:30:29Z</time>
      </trkpt>
      <trkpt lat="49.30374" lon="6.15682">
        <ele>160.2</ele>
        <time>2021-07-22T17:30:30Z</time>
      </trkpt>
      <trkpt lat="49.30367" lon="6.15692">
        <ele>158.27</ele>
        <time>2021-07-22T17:30:31Z</time>
      </trkpt>
      <trkpt lat="49.30358" lon="6.157">
        <ele>157.31</ele>
        <time>2021-07-22T17:30:32Z</time>
      </trkpt>
      <trkpt lat="49.30274" lon="6.15769">
        <ele>155.39</ele>
        <time>2021-07-22T17:30:40Z</time>
      </trkpt>
      <trkpt lat="49.30274" lon="6.15769">
        <ele>155.39</ele>
        <time>2021-07-22T17:30:41Z</time>
      </trkpt>
      <trkpt lat="49.30264" lon="6.15771">
        <ele>154.91</ele>
        <time>2021-07-22T17:30:42Z</time>
      </trkpt>
      <trkpt lat="49.30255" lon="6.15771">
        <ele>155.39</ele>
        <time>2021-07-22T17:30:43Z</time>
      </trkpt>
      <trkpt lat="49.30247" lon="6.15771">
        <ele>155.39</ele>
        <time>2021-07-22T17:30:44Z</time>
      </trkpt>
      <trkpt lat="49.3024" lon="6.15771">
        <ele>155.39</ele>
        <time>2021-07-22T17:30:45Z</time>
      </trkpt>
      <trkpt lat="49.30235" lon="6.15771">
        <ele>155.39</ele>
        <time>2021-07-22T17:30:46Z</time>
      </trkpt>
      <trkpt lat="49.3023" lon="6.15771">
        <ele>155.87</ele>
        <time>2021-07-22T17:30:47Z</time>
      </trkpt>
      <trkpt lat="49.30226" lon="6.15771">
        <ele>155.87</ele>
        <time>2021-07-22T17:30:48Z</time>
      </trkpt>
      <trkpt lat="49.30224" lon="6.15756">
        <ele>156.35</ele>
        <time>2021-07-22T17:30:49Z</time>
      </trkpt>
      <trkpt lat="49.30221" lon="6.15751">
        <ele>155.87</ele>
        <time>2021-07-22T17:30:50Z</time>
      </trkpt>
      <trkpt lat="49.30219" lon="6.15748">
        <ele>155.87</ele>
        <time>2021-07-22T17:30:51Z</time>
      </trkpt>
      <trkpt lat="49.3021" lon="6.15751">
        <ele>155.39</ele>
        <time>2021-07-22T17:30:52Z</time>
      </trkpt>
      <trkpt lat="49.30207" lon="6.15756">
        <ele>155.39</ele>
        <time>2021-07-22T17:30:53Z</time>
      </trkpt>
      <trkpt lat="49.30207" lon="6.15756">
        <ele>155.39</ele>
        <time>2021-07-22T17:30:54Z</time>
      </trkpt>
      <trkpt lat="49.30207" lon="6.1576">
        <ele>155.39</ele>
        <time>2021-07-22T17:30:55Z</time>
      </trkpt>
      <trkpt lat="49.30207" lon="6.15765">
        <ele>155.39</ele>
        <time>2021-07-22T17:30:56Z</time>
      </trkpt>
      <trkpt lat="49.30215" lon="6.15797">
        <ele>155.39</ele>
        <time>2021-07-22T17:31:05Z</time>
      </trkpt>
      <trkpt lat="49.30216" lon="6.15804">
        <ele>155.87</ele>
        <time>2021-07-22T17:31:06Z</time>
      </trkpt>
      <trkpt lat="49.30255" lon="6.15905">
        <ele>156.83</ele>
        <time>2021-07-22T17:31:17Z</time>
      </trkpt>
      <trkpt lat="49.30306" lon="6.16018">
        <ele>156.83</ele>
        <time>2021-07-22T17:31:30Z</time>
      </trkpt>
      <trkpt lat="49.30311" lon="6.16021">
        <ele>156.83</ele>
        <time>2021-07-22T17:31:31Z</time>
      </trkpt>
      <trkpt lat="49.30316" lon="6.16024">
        <ele>156.83</ele>
        <time>2021-07-22T17:31:32Z</time>
      </trkpt>
      <trkpt lat="49.30316" lon="6.16024">
        <ele>156.83</ele>
        <time>2021-07-22T17:31:33Z</time>
      </trkpt>
      <trkpt lat="49.3032" lon="6.16027">
        <ele>156.83</ele>
        <time>2021-07-22T17:31:34Z</time>
      </trkpt>
      <trkpt lat="49.30331" lon="6.16025">
        <ele>156.35</ele>
        <time>2021-07-22T17:31:35Z</time>
      </trkpt>
      <trkpt lat="49.30413" lon="6.15994">
        <ele>155.39</ele>
        <time>2021-07-22T17:31:51Z</time>
      </trkpt>
      <trkpt lat="49.30414" lon="6.15994">
        <ele>154.43</ele>
        <time>2021-07-22T17:32:02Z</time>
      </trkpt>
      <trkpt lat="49.30414" lon="6.15994">
        <ele>155.39</ele>
        <time>2021-07-22T17:32:18Z</time>
      </trkpt>
      <trkpt lat="49.30414" lon="6.15994">
        <ele>154.91</ele>
        <time>2021-07-22T17:32:41Z</time>
      </trkpt>
      <trkpt lat="49.30414" lon="6.15994">
        <ele>155.39</ele>
        <time>2021-07-22T17:33:02Z</time>
      </trkpt>
      <trkpt lat="49.30414" lon="6.15994">
        <ele>155.39</ele>
        <time>2021-07-22T17:33:13Z</time>
      </trkpt>
      <trkpt lat="49.30413" lon="6.15994">
        <ele>155.39</ele>
        <time>2021-07-22T17:33:14Z</time>
      </trkpt>
      <trkpt lat="49.30413" lon="6.15994">
        <ele>155.39</ele>
        <time>2021-07-22T17:33:15Z</time>
      </trkpt>
      <trkpt lat="49.3034" lon="6.16021">
        <ele>154.91</ele>
        <time>2021-07-22T17:33:26Z</time>
      </trkpt>
      <trkpt lat="49.30327" lon="6.16027">
        <ele>155.39</ele>
        <time>2021-07-22T17:33:28Z</time>
      </trkpt>
      <trkpt lat="49.30323" lon="6.16028">
        <ele>155.39</ele>
        <time>2021-07-22T17:33:29Z</time>
      </trkpt>
      <trkpt lat="49.30316" lon="6.16024">
        <ele>155.39</ele>
        <time>2021-07-22T17:33:30Z</time>
      </trkpt>
      <trkpt lat="49.3031" lon="6.16021">
        <ele>155.39</ele>
        <time>2021-07-22T17:33:31Z</time>
      </trkpt>
      <trkpt lat="49.30305" lon="6.16018">
        <ele>155.39</ele>
        <time>2021-07-22T17:33:32Z</time>
      </trkpt>
      <trkpt lat="49.30299" lon="6.16014">
        <ele>155.39</ele>
        <time>2021-07-22T17:33:33Z</time>
      </trkpt>
      <trkpt lat="49.30246" lon="6.15881">
        <ele>156.83</ele>
        <time>2021-07-22T17:33:45Z</time>
      </trkpt>
      <trkpt lat="49.30215" lon="6.15798">
        <ele>157.31</ele>
        <time>2021-07-22T17:33:54Z</time>
      </trkpt>
      <trkpt lat="49.30214" lon="6.15792">
        <ele>157.31</ele>
        <time>2021-07-22T17:34:10Z</time>
      </trkpt>
      <trkpt lat="49.30215" lon="6.15782">
        <ele>157.31</ele>
        <time>2021-07-22T17:34:16Z</time>
      </trkpt>
      <trkpt lat="49.30215" lon="6.15782">
        <ele>157.31</ele>
        <time>2021-07-22T17:34:17Z</time>
      </trkpt>
      <trkpt lat="49.30215" lon="6.15779">
        <ele>157.79</ele>
        <time>2021-07-22T17:34:18Z</time>
      </trkpt>
      <trkpt lat="49.30216" lon="6.15777">
        <ele>157.79</ele>
        <time>2021-07-22T17:34:19Z</time>
      </trkpt>
      <trkpt lat="49.3022" lon="6.15774">
        <ele>157.79</ele>
        <time>2021-07-22T17:34:20Z</time>
      </trkpt>
      <trkpt lat="49.30226" lon="6.15771">
        <ele>157.79</ele>
        <time>2021-07-22T17:34:21Z</time>
      </trkpt>
      <trkpt lat="49.30226" lon="6.15771">
        <ele>157.79</ele>
        <time>2021-07-22T17:34:22Z</time>
      </trkpt>
      <trkpt lat="49.3023" lon="6.15771">
        <ele>157.79</ele>
        <time>2021-07-22T17:34:23Z</time>
      </trkpt>
      <trkpt lat="49.30234" lon="6.15771">
        <ele>158.27</ele>
        <time>2021-07-22T17:34:24Z</time>
      </trkpt>
      <trkpt lat="49.30271" lon="6.1577">
        <ele>159.24</ele>
        <time>2021-07-22T17:34:31Z</time>
      </trkpt>
      <trkpt lat="49.30277" lon="6.15767">
        <ele>159.24</ele>
        <time>2021-07-22T17:34:32Z</time>
      </trkpt>
      <trkpt lat="49.30283" lon="6.15765">
        <ele>159.72</ele>
        <time>2021-07-22T17:34:33Z</time>
      </trkpt>
      <trkpt lat="49.3035" lon="6.15708">
        <ele>161.64</ele>
        <time>2021-07-22T17:34:45Z</time>
      </trkpt>
      <trkpt lat="49.30367" lon="6.15692">
        <ele>162.6</ele>
        <time>2021-07-22T17:34:48Z</time>
      </trkpt>
      <trkpt lat="49.30372" lon="6.15686">
        <ele>162.6</ele>
        <time>2021-07-22T17:34:49Z</time>
      </trkpt>
      <trkpt lat="49.30377" lon="6.15678">
        <ele>162.6</ele>
        <time>2021-07-22T17:34:50Z</time>
      </trkpt>
      <trkpt lat="49.30384" lon="6.15662">
        <ele>163.08</ele>
        <time>2021-07-22T17:34:51Z</time>
      </trkpt>
      <trkpt lat="49.30384" lon="6.15662">
        <ele>163.08</ele>
        <time>2021-07-22T17:34:52Z</time>
      </trkpt>
      <trkpt lat="49.30385" lon="6.15653">
        <ele>163.08</ele>
        <time>2021-07-22T17:34:53Z</time>
      </trkpt>
      <trkpt lat="49.30385" lon="6.15644">
        <ele>163.08</ele>
        <time>2021-07-22T17:34:54Z</time>
      </trkpt>
      <trkpt lat="49.30386" lon="6.15635">
        <ele>163.08</ele>
        <time>2021-07-22T17:34:55Z</time>
      </trkpt>
      <trkpt lat="49.30393" lon="6.15521">
        <ele>162.6</ele>
        <time>2021-07-22T17:35:08Z</time>
      </trkpt>
      <trkpt lat="49.30397" lon="6.15449">
        <ele>161.16</ele>
        <time>2021-07-22T17:35:15Z</time>
      </trkpt>
      <trkpt lat="49.30399" lon="6.15432">
        <ele>161.16</ele>
        <time>2021-07-22T17:35:17Z</time>
      </trkpt>
      <trkpt lat="49.30401" lon="6.15423">
        <ele>161.16</ele>
        <time>2021-07-22T17:35:18Z</time>
      </trkpt>
      <trkpt lat="49.30401" lon="6.15412">
        <ele>161.16</ele>
        <time>2021-07-22T17:35:19Z</time>
      </trkpt>
      <trkpt lat="49.30399" lon="6.15405">
        <ele>160.68</ele>
        <time>2021-07-22T17:35:20Z</time>
      </trkpt>
      <trkpt lat="49.30393" lon="6.15402">
        <ele>160.68</ele>
        <time>2021-07-22T17:35:21Z</time>
      </trkpt>
      <trkpt lat="49.30388" lon="6.154">
        <ele>160.68</ele>
        <time>2021-07-22T17:35:22Z</time>
      </trkpt>
      <trkpt lat="49.30384" lon="6.15402">
        <ele>160.68</ele>
        <time>2021-07-22T17:35:23Z</time>
      </trkpt>
      <trkpt lat="49.30381" lon="6.15405">
        <ele>161.16</ele>
        <time>2021-07-22T17:35:24Z</time>
      </trkpt>
      <trkpt lat="49.30378" lon="6.15411">
        <ele>161.16</ele>
        <time>2021-07-22T17:35:25Z</time>
      </trkpt>
      <trkpt lat="49.30375" lon="6.15418">
        <ele>161.16</ele>
        <time>2021-07-22T17:35:26Z</time>
      </trkpt>
      <trkpt lat="49.30376" lon="6.15424">
        <ele>161.16</ele>
        <time>2021-07-22T17:35:27Z</time>
      </trkpt>
      <trkpt lat="49.30379" lon="6.15431">
        <ele>161.64</ele>
        <time>2021-07-22T17:35:28Z</time>
      </trkpt>
      <trkpt lat="49.30382" lon="6.15438">
        <ele>161.64</ele>
        <time>2021-07-22T17:35:29Z</time>
      </trkpt>
      <trkpt lat="49.30385" lon="6.15446">
        <ele>161.64</ele>
        <time>2021-07-22T17:35:30Z</time>
      </trkpt>
      <trkpt lat="49.3039" lon="6.15462">
        <ele>162.12</ele>
        <time>2021-07-22T17:35:31Z</time>
      </trkpt>
      <trkpt lat="49.3039" lon="6.15462">
        <ele>162.12</ele>
        <time>2021-07-22T17:35:32Z</time>
      </trkpt>
      <trkpt lat="49.30394" lon="6.15479">
        <ele>162.12</ele>
        <time>2021-07-22T17:35:33Z</time>
      </trkpt>
      <trkpt lat="49.30394" lon="6.15489">
        <ele>162.12</ele>
        <time>2021-07-22T17:35:34Z</time>
      </trkpt>
      <trkpt lat="49.30394" lon="6.15489">
        <ele>162.12</ele>
        <time>2021-07-22T17:35:35Z</time>
      </trkpt>
      <trkpt lat="49.30387" lon="6.15617">
        <ele>163.56</ele>
        <time>2021-07-22T17:35:46Z</time>
      </trkpt>
      <trkpt lat="49.30385" lon="6.15652">
        <ele>163.08</ele>
        <time>2021-07-22T17:35:48Z</time>
      </trkpt>
      <trkpt lat="49.30384" lon="6.15664">
        <ele>163.08</ele>
        <time>2021-07-22T17:35:49Z</time>
      </trkpt>
      <trkpt lat="49.30384" lon="6.15664">
        <ele>162.6</ele>
        <time>2021-07-22T17:35:50Z</time>
      </trkpt>
      <trkpt lat="49.30379" lon="6.15675">
        <ele>161.64</ele>
        <time>2021-07-22T17:35:51Z</time>
      </trkpt>
      <trkpt lat="49.30373" lon="6.15684">
        <ele>161.16</ele>
        <time>2021-07-22T17:35:52Z</time>
      </trkpt>
      <trkpt lat="49.30366" lon="6.15693">
        <ele>159.72</ele>
        <time>2021-07-22T17:35:53Z</time>
      </trkpt>
      <trkpt lat="49.30357" lon="6.15701">
        <ele>158.27</ele>
        <time>2021-07-22T17:35:54Z</time>
      </trkpt>
      <trkpt lat="49.30293" lon="6.1576">
        <ele>154.43</ele>
        <time>2021-07-22T17:36:01Z</time>
      </trkpt>
      <trkpt lat="49.30283" lon="6.15765">
        <ele>153.95</ele>
        <time>2021-07-22T17:36:02Z</time>
      </trkpt>
      <trkpt lat="49.30273" lon="6.15769">
        <ele>152.99</ele>
        <time>2021-07-22T17:36:03Z</time>
      </trkpt>
      <trkpt lat="49.30262" lon="6.15771">
        <ele>152.99</ele>
        <time>2021-07-22T17:36:04Z</time>
      </trkpt>
      <trkpt lat="49.30252" lon="6.15771">
        <ele>152.99</ele>
        <time>2021-07-22T17:36:05Z</time>
      </trkpt>
      <trkpt lat="49.30245" lon="6.15771">
        <ele>152.51</ele>
        <time>2021-07-22T17:36:06Z</time>
      </trkpt>
      <trkpt lat="49.30238" lon="6.15771">
        <ele>152.51</ele>
        <time>2021-07-22T17:36:07Z</time>
      </trkpt>
      <trkpt lat="49.30233" lon="6.15771">
        <ele>153.47</ele>
        <time>2021-07-22T17:36:08Z</time>
      </trkpt>
      <trkpt lat="49.30227" lon="6.15771">
        <ele>153.47</ele>
        <time>2021-07-22T17:36:09Z</time>
      </trkpt>
      <trkpt lat="49.30223" lon="6.15753">
        <ele>153.47</ele>
        <time>2021-07-22T17:36:10Z</time>
      </trkpt>
      <trkpt lat="49.30219" lon="6.15748">
        <ele>152.99</ele>
        <time>2021-07-22T17:36:11Z</time>
      </trkpt>
      <trkpt lat="49.30212" lon="6.15749">
        <ele>152.99</ele>
        <time>2021-07-22T17:36:12Z</time>
      </trkpt>
      <trkpt lat="49.30207" lon="6.15754">
        <ele>152.99</ele>
        <time>2021-07-22T17:36:13Z</time>
      </trkpt>
      <trkpt lat="49.30207" lon="6.15754">
        <ele>152.51</ele>
        <time>2021-07-22T17:36:14Z</time>
      </trkpt>
      <trkpt lat="49.30201" lon="6.15772">
        <ele>152.51</ele>
        <time>2021-07-22T17:36:15Z</time>
      </trkpt>
      <trkpt lat="49.30112" lon="6.15855">
        <ele>152.03</ele>
        <time>2021-07-22T17:36:28Z</time>
      </trkpt>
      <trkpt lat="49.30093" lon="6.15878">
        <ele>152.99</ele>
        <time>2021-07-22T17:36:33Z</time>
      </trkpt>
      <trkpt lat="49.30093" lon="6.15878">
        <ele>152.99</ele>
        <time>2021-07-22T17:36:34Z</time>
      </trkpt>
      <trkpt lat="49.30091" lon="6.15888">
        <ele>152.99</ele>
        <time>2021-07-22T17:36:35Z</time>
      </trkpt>
      <trkpt lat="49.30089" lon="6.15897">
        <ele>153.47</ele>
        <time>2021-07-22T17:36:36Z</time>
      </trkpt>
      <trkpt lat="49.30087" lon="6.15906">
        <ele>153.47</ele>
        <time>2021-07-22T17:36:37Z</time>
      </trkpt>
      <trkpt lat="49.30088" lon="6.15913">
        <ele>153.47</ele>
        <time>2021-07-22T17:36:38Z</time>
      </trkpt>
      <trkpt lat="49.30089" lon="6.15923">
        <ele>153.47</ele>
        <time>2021-07-22T17:36:39Z</time>
      </trkpt>
      <trkpt lat="49.30105" lon="6.16098">
        <ele>153.95</ele>
        <time>2021-07-22T17:36:54Z</time>
      </trkpt>
      <trkpt lat="49.30112" lon="6.16186">
        <ele>154.43</ele>
        <time>2021-07-22T17:37:05Z</time>
      </trkpt>
      <trkpt lat="49.30114" lon="6.16214">
        <ele>155.39</ele>
        <time>2021-07-22T17:37:57Z</time>
      </trkpt>
      <trkpt lat="49.30115" lon="6.16221">
        <ele>155.39</ele>
        <time>2021-07-22T17:37:58Z</time>
      </trkpt>
      <trkpt lat="49.30115" lon="6.16229">
        <ele>155.87</ele>
        <time>2021-07-22T17:37:59Z</time>
      </trkpt>
      <trkpt lat="49.30116" lon="6.16237">
        <ele>155.87</ele>
        <time>2021-07-22T17:38:00Z</time>
      </trkpt>
      <trkpt lat="49.30117" lon="6.16245">
        <ele>155.87</ele>
        <time>2021-07-22T17:38:01Z</time>
      </trkpt>
      <trkpt lat="49.30124" lon="6.16255">
        <ele>156.35</ele>
        <time>2021-07-22T17:38:02Z</time>
      </trkpt>
      <trkpt lat="49.30135" lon="6.1626">
        <ele>156.35</ele>
        <time>2021-07-22T17:38:03Z</time>
      </trkpt>
      <trkpt lat="49.30135" lon="6.1626">
        <ele>156.83</ele>
        <time>2021-07-22T17:38:04Z</time>
      </trkpt>
      <trkpt lat="49.3014" lon="6.16263">
        <ele>156.35</ele>
        <time>2021-07-22T17:38:05Z</time>
      </trkpt>
      <trkpt lat="49.30146" lon="6.16263">
        <ele>156.35</ele>
        <time>2021-07-22T17:38:06Z</time>
      </trkpt>
      <trkpt lat="49.30152" lon="6.16261">
        <ele>155.87</ele>
        <time>2021-07-22T17:38:07Z</time>
      </trkpt>
      <trkpt lat="49.30158" lon="6.16259">
        <ele>156.35</ele>
        <time>2021-07-22T17:38:08Z</time>
      </trkpt>
      <trkpt lat="49.30165" lon="6.16257">
        <ele>156.35</ele>
        <time>2021-07-22T17:38:09Z</time>
      </trkpt>
      <trkpt lat="49.30281" lon="6.16183">
        <ele>155.87</ele>
        <time>2021-07-22T17:38:22Z</time>
      </trkpt>
      <trkpt lat="49.30442" lon="6.16114">
        <ele>155.39</ele>
        <time>2021-07-22T17:38:37Z</time>
      </trkpt>
      <trkpt lat="49.30549" lon="6.16074">
        <ele>153.95</ele>
        <time>2021-07-22T17:38:48Z</time>
      </trkpt>
      <trkpt lat="49.30561" lon="6.16069">
        <ele>154.43</ele>
        <time>2021-07-22T17:38:56Z</time>
      </trkpt>
      <trkpt lat="49.30561" lon="6.16069">
        <ele>154.43</ele>
        <time>2021-07-22T17:38:57Z</time>
      </trkpt>
      <trkpt lat="49.30563" lon="6.16069">
        <ele>154.91</ele>
        <time>2021-07-22T17:38:58Z</time>
      </trkpt>
      <trkpt lat="49.30559" lon="6.16058">
        <ele>154.91</ele>
        <time>2021-07-22T17:38:59Z</time>
      </trkpt>
      <trkpt lat="49.30558" lon="6.16052">
        <ele>154.91</ele>
        <time>2021-07-22T17:39:00Z</time>
      </trkpt>
      <trkpt lat="49.30557" lon="6.16046">
        <ele>154.91</ele>
        <time>2021-07-22T17:39:01Z</time>
      </trkpt>
      <trkpt lat="49.30542" lon="6.15968">
        <ele>156.35</ele>
        <time>2021-07-22T17:39:16Z</time>
      </trkpt>
      <trkpt lat="49.30539" lon="6.15959">
        <ele>156.83</ele>
        <time>2021-07-22T17:39:30Z</time>
      </trkpt>
      <trkpt lat="49.30537" lon="6.15954">
        <ele>156.83</ele>
        <time>2021-07-22T17:39:38Z</time>
      </trkpt>
      <trkpt lat="49.30536" lon="6.15952">
        <ele>156.83</ele>
        <time>2021-07-22T17:39:39Z</time>
      </trkpt>
      <trkpt lat="49.30536" lon="6.1595">
        <ele>156.83</ele>
        <time>2021-07-22T17:39:40Z</time>
      </trkpt>
      <trkpt lat="49.30535" lon="6.15948">
        <ele>156.35</ele>
        <time>2021-07-22T17:39:41Z</time>
      </trkpt>
      <trkpt lat="49.3055" lon="6.15944">
        <ele>155.39</ele>
        <time>2021-07-22T17:39:57Z</time>
      </trkpt>
      <trkpt lat="49.30551" lon="6.15943">
        <ele>155.39</ele>
        <time>2021-07-22T17:39:58Z</time>
      </trkpt>
      <trkpt lat="49.30569" lon="6.15925">
        <ele>155.39</ele>
        <time>2021-07-22T17:40:12Z</time>
      </trkpt>
      <trkpt lat="49.30575" lon="6.15923">
        <ele>155.39</ele>
        <time>2021-07-22T17:40:18Z</time>
      </trkpt>
      <trkpt lat="49.30584" lon="6.15906">
        <ele>155.39</ele>
        <time>2021-07-22T17:40:29Z</time>
      </trkpt>
      <trkpt lat="49.30586" lon="6.15903">
        <ele>155.39</ele>
        <time>2021-07-22T17:40:30Z</time>
      </trkpt>
      <trkpt lat="49.30593" lon="6.15914">
        <ele>155.87</ele>
        <time>2021-07-22T17:40:38Z</time>
      </trkpt>
      <trkpt lat="49.3059" lon="6.15913">
        <ele>155.39</ele>
        <time>2021-07-22T17:40:47Z</time>
      </trkpt>
      <trkpt lat="49.30574" lon="6.15922">
        <ele>154.43</ele>
        <time>2021-07-22T17:40:56Z</time>
      </trkpt>
      <trkpt lat="49.30567" lon="6.15926">
        <ele>152.99</ele>
        <time>2021-07-22T17:41:10Z</time>
      </trkpt>
      <trkpt lat="49.3057" lon="6.15924">
        <ele>153.47</ele>
        <time>2021-07-22T17:41:33Z</time>
      </trkpt>
      <trkpt lat="49.30571" lon="6.15924">
        <ele>153.47</ele>
        <time>2021-07-22T17:42:33Z</time>
      </trkpt>
      <trkpt lat="49.30571" lon="6.15925">
        <ele>153.47</ele>
        <time>2021-07-22T17:45:31Z</time>
      </trkpt>
      <trkpt lat="49.30572" lon="6.15924">
        <ele>153.47</ele>
        <time>2021-07-22T17:49:55Z</time>
      </trkpt>
      <trkpt lat="49.30573" lon="6.15923">
        <ele>153.47</ele>
        <time>2021-07-22T17:54:34Z</time>
      </trkpt>
      <trkpt lat="49.30526" lon="6.15991">
        <ele>155.87</ele>
        <time>2021-07-22T18:41:03Z</time>
      </trkpt>
      <trkpt lat="49.30512" lon="6.15898">
        <ele>110.69</ele>
        <time>2021-07-22T18:41:29Z</time>
      </trkpt>
      <trkpt lat="49.30529" lon="6.15911">
        <ele>125.59</ele>
        <time>2021-07-22T18:42:31Z</time>
      </trkpt>
      <trkpt lat="49.3053" lon="6.15911">
        <ele>125.11</ele>
        <time>2021-07-22T18:43:43Z</time>
      </trkpt>
      <trkpt lat="49.3053" lon="6.1591">
        <ele>125.11</ele>
        <time>2021-07-22T18:45:06Z</time>
      </trkpt>
      <trkpt lat="49.30529" lon="6.15912">
        <ele>124.63</ele>
        <time>2021-07-22T18:45:37Z</time>
      </trkpt>
    </trkseg>
  </trk>
</gpx>